Time;durP1;ratioP1;P1;durP2;ratioP2;P2;SDS_P1;SDS_P2;PMS_P1;PMS_P2;Temp;Humidity;BMP_temperature;BMP_pressure;BME280_temperature;BME280_humidity;BME280_pressure;Samples;Min_cycle;Max_cycle;Signal;HPM_P1;HPM_P2
2023/03/29 00:00:39;;;;;;;2.38;1.60;;;7.90;33.70;;;;;;5139799;27;20348;-60
2023/03/29 00:03:05;;;;;;;3.88;1.63;;;7.90;23.30;;;;;;5139631;27;20035;-61
2023/03/29 00:05:34;;;;;;;4.03;1.60;;;8.00;24.20;;;;;;5139220;27;20281;-61
2023/03/29 00:08:02;;;;;;;3.70;1.90;;;8.00;16.80;;;;;;5138521;27;20039;-61
2023/03/29 00:10:31;;;;;;;5.30;1.88;;;8.00;11.00;;;;;;5139517;27;20054;-61
2023/03/29 00:12:57;;;;;;;5.82;1.80;;;8.10;9.10;;;;;;5139147;27;20459;-61
2023/03/29 00:15:23;;;;;;;4.90;1.70;;;8.10;11.90;;;;;;5139103;27;20049;-61
2023/03/29 00:17:49;;;;;;;4.32;2.15;;;8.10;5.70;;;;;;5139073;27;20296;-61
2023/03/29 00:20:15;;;;;;;5.43;1.70;;;8.10;4.20;;;;;;5138942;27;20334;-61
2023/03/29 00:22:42;;;;;;;2.50;1.65;;;8.20;1.00;;;;;;5138990;27;20341;-65
2023/03/29 00:25:09;;;;;;;3.70;1.70;;;8.20;3.20;;;;;;5138975;27;20039;-61
2023/03/29 00:27:35;;;;;;;4.05;1.77;;;8.20;2.00;;;;;;5138863;27;20059;-61
2023/03/29 00:30:03;;;;;;;2.97;1.83;;;8.30;1.00;;;;;;5138849;27;20106;-60
2023/03/29 00:32:29;;;;;;;3.03;1.63;;;8.30;1.00;;;;;;5138006;27;20328;-60
2023/03/29 00:34:56;;;;;;;3.33;1.80;;;8.30;1.00;;;;;;5138754;27;20027;-61
2023/03/29 00:37:25;;;;;;;2.25;1.63;;;8.30;1.00;;;;;;5138731;27;20027;-61
2023/03/29 00:39:52;;;;;;;6.25;2.10;;;8.30;1.00;;;;;;5138191;27;20313;-60
2023/03/29 00:42:19;;;;;;;3.42;1.70;;;8.30;1.00;;;;;;5137834;27;20072;-61
2023/03/29 00:45:11;;;;;;;2.97;1.70;;;8.30;1.00;;;;;;5137861;27;20485;-61
2023/03/29 00:47:41;;;;;;;5.00;1.97;;;8.30;1.00;;;;;;5133965;27;20039;-61
2023/03/29 00:50:15;;;;;;;4.03;1.90;;;8.30;1.00;;;;;;5138524;27;20572;-61
2023/03/29 00:52:45;;;;;;;2.65;1.45;;;8.30;1.00;;;;;;5137633;27;20034;-61
2023/03/29 00:55:16;;;;;;;3.88;1.60;;;8.30;1.00;;;;;;5138411;27;20019;-62
2023/03/29 00:57:45;;;;;;;3.90;1.80;;;8.30;1.00;;;;;;5138354;27;20027;-61
2023/03/29 01:00:19;;;;;;;3.42;1.73;;;8.30;1.00;;;;;;5138547;27;20123;-62
2023/03/29 01:02:54;;;;;;;4.43;1.88;;;8.40;1.00;;;;;;5138688;27;20388;-61
2023/03/29 01:05:29;;;;;;;4.38;1.90;;;8.50;1.00;;;;;;5137860;27;20131;-59
2023/03/29 01:08:24;;;;;;;5.55;1.80;;;8.60;1.00;;;;;;5137489;27;20035;-59
2023/03/29 01:10:57;;;;;;;6.20;1.83;;;8.70;1.00;;;;;;5137407;27;20316;-59
2023/03/29 01:13:56;;;;;;;4.30;1.85;;;8.60;1.00;;;;;;5137340;27;20042;-60
2023/03/29 01:16:25;;;;;;;4.20;1.95;;;8.50;1.00;;;;;;5131807;27;20038;-60
2023/03/29 01:18:51;;;;;;;3.80;1.60;;;8.50;1.00;;;;;;5137225;27;20046;-60
2023/03/29 01:21:48;;;;;;;2.97;1.80;;;8.50;1.00;;;;;;5137195;27;20311;-60
2023/03/29 01:24:40;;;;;;;4.03;1.90;;;8.50;1.00;;;;;;5116351;27;20031;-61
2023/03/29 01:27:31;;;;;;;6.38;2.28;;;8.60;1.00;;;;;;5138209;27;20038;-61
2023/03/29 01:30:04;;;;;;;5.20;1.90;;;8.50;1.00;;;;;;5137951;27;20114;-61
2023/03/29 01:32:46;;;;;;;8.45;2.13;;;8.40;1.00;;;;;;5138406;27;20027;-61
2023/03/29 01:35:18;;;;;;;3.47;1.70;;;8.40;1.00;;;;;;5137171;28;20336;-61
2023/03/29 01:38:25;;;;;;;5.07;2.10;;;8.40;1.00;;;;;;5137832;27;20042;-60
2023/03/29 01:40:51;;;;;;;4.53;1.80;;;8.40;1.00;;;;;;5058280;28;20045;-61
2023/03/29 01:43:49;;;;;;;2.83;1.90;;;8.40;1.00;;;;;;5127631;27;20095;-60
2023/03/29 01:46:33;;;;;;;5.07;2.20;;;8.40;1.00;;;;;;5124812;27;20091;-61
2023/03/29 01:49:11;;;;;;;5.68;2.35;;;8.40;1.50;;;;;;5137759;28;20076;-60
2023/03/29 01:51:48;;;;;;;3.40;1.80;;;8.30;6.20;;;;;;5137255;28;20069;-61
2023/03/29 01:54:20;;;;;;;4.47;1.98;;;8.30;5.00;;;;;;5137881;27;20034;-61
2023/03/29 01:56:49;;;;;;;3.50;2.17;;;8.30;2.80;;;;;;5141019;27;20395;-61
2023/03/29 01:59:21;;;;;;;4.80;2.15;;;8.30;10.90;;;;;;5141122;27;20456;-61
2023/03/29 02:01:51;;;;;;;4.18;1.90;;;8.20;13.50;;;;;;5141162;27;20027;-61
2023/03/29 02:04:22;;;;;;;4.57;2.08;;;8.20;11.40;;;;;;5141035;27;20031;-61
2023/03/29 02:06:53;;;;;;;3.40;1.80;;;8.20;15.80;;;;;;5142010;27;20027;-62
2023/03/29 02:09:19;;;;;;;5.25;2.20;;;8.20;13.70;;;;;;5141670;27;20127;-61
2023/03/29 02:11:46;;;;;;;4.10;1.98;;;8.30;15.20;;;;;;5141762;27;20031;-61
2023/03/29 02:14:12;;;;;;;2.40;1.80;;;8.30;13.20;;;;;;5141472;27;20172;-61
2023/03/29 02:16:39;;;;;;;5.03;2.03;;;8.30;13.70;;;;;;5140827;27;20035;-61
2023/03/29 02:19:06;;;;;;;2.88;2.03;;;8.30;16.80;;;;;;5140667;27;20034;-61
2023/03/29 02:21:50;;;;;;;3.45;2.20;;;8.40;14.40;;;;;;5140547;27;20051;-61
2023/03/29 02:24:18;;;;;;;;;;;8.30;18.80;;;;;;5141815;27;20031;-61
2023/03/29 02:26:44;;;;;;;5.32;1.80;;;8.30;17.30;;;;;;5140629;27;19907;-61
2023/03/29 02:29:10;;;;;;;4.72;1.90;;;8.30;19.10;;;;;;5141302;27;20215;-61
2023/03/29 02:31:45;;;;;;;2.97;2.03;;;8.30;21.60;;;;;;5141121;27;20031;-61
2023/03/29 02:34:25;;;;;;;3.65;1.90;;;8.30;20.50;;;;;;5141223;27;20058;-62
2023/03/29 02:36:58;;;;;;;5.13;2.25;;;8.30;24.40;;;;;;5141093;27;20269;-61
2023/03/29 02:39:27;;;;;;;4.43;2.08;;;8.30;24.70;;;;;;5140239;27;20304;-61
2023/03/29 02:41:54;;;;;;;7.00;2.33;;;8.30;25.40;;;;;;5140729;27;20055;-61
2023/03/29 02:44:27;;;;;;;6.15;2.38;;;8.40;25.70;;;;;;5140162;27;20046;-62
2023/03/29 02:47:02;;;;;;;2.88;2.00;;;8.40;23.70;;;;;;5140106;27;20395;-60
2023/03/29 02:49:28;;;;;;;3.45;1.80;;;8.50;23.80;;;;;;5140148;27;20047;-60
2023/03/29 02:51:58;;;;;;;3.85;2.15;;;8.50;25.70;;;;;;5139965;27;20059;-60
2023/03/29 02:54:28;;;;;;;3.40;2.10;;;8.50;22.00;;;;;;5139928;27;20106;-60
2023/03/29 02:56:59;;;;;;;3.25;2.10;;;8.60;22.00;;;;;;5140057;27;20050;-60
2023/03/29 02:59:28;;;;;;;3.63;2.20;;;8.70;22.70;;;;;;5140644;27;20106;-60
2023/03/29 03:01:55;;;;;;;3.28;2.17;;;8.60;23.70;;;;;;5140730;27;20415;-60
2023/03/29 03:04:21;;;;;;;3.92;2.00;;;8.70;24.30;;;;;;5139746;27;20035;-60
2023/03/29 03:06:48;;;;;;;4.68;2.10;;;8.70;24.80;;;;;;5139127;27;20027;-60
2023/03/29 03:09:14;;;;;;;4.53;2.20;;;8.80;24.80;;;;;;5140693;27;20283;-60
2023/03/29 03:11:42;;;;;;;6.47;2.20;;;8.70;25.10;;;;;;5123719;27;20045;-60
2023/03/29 03:14:08;;;;;;;5.85;2.30;;;8.60;27.50;;;;;;5139536;27;20110;-60
2023/03/29 03:16:35;;;;;;;7.07;2.53;;;8.60;31.20;;;;;;5139548;27;20027;-61
2023/03/29 03:19:01;;;;;;;5.60;2.47;;;8.70;31.90;;;;;;5139861;27;20450;-60
2023/03/29 03:21:27;;;;;;;3.92;2.38;;;8.70;32.80;;;;;;5139317;27;20038;-60
2023/03/29 03:23:53;;;;;;;3.90;2.05;;;8.70;31.00;;;;;;5139585;27;20019;-60
2023/03/29 03:26:19;;;;;;;4.43;2.63;;;8.80;32.00;;;;;;5140153;27;20035;-60
2023/03/29 03:28:45;;;;;;;4.57;2.25;;;8.70;33.50;;;;;;5122322;27;20303;-60
2023/03/29 03:31:27;;;;;;;7.68;3.05;;;8.70;36.70;;;;;;5139164;27;20326;-60
2023/03/29 03:34:10;;;;;;;4.63;2.60;;;8.80;34.80;;;;;;5109034;27;20042;-60
2023/03/29 03:36:46;;;;;;;3.45;2.30;;;8.80;37.80;;;;;;5123484;27;20041;-61
2023/03/29 03:39:13;;;;;;;6.30;2.50;;;8.80;38.60;;;;;;5139873;27;20027;-60
2023/03/29 03:41:39;;;;;;;5.57;2.72;;;8.80;37.80;;;;;;5139563;27;20043;-60
2023/03/29 03:44:05;;;;;;;3.38;2.30;;;8.90;35.70;;;;;;5139067;27;20106;-61
2023/03/29 03:46:31;;;;;;;4.07;2.42;;;8.90;36.30;;;;;;5138979;27;20114;-60
2023/03/29 03:48:58;;;;;;;4.28;2.28;;;8.90;38.10;;;;;;5138869;27;20357;-60
2023/03/29 03:51:29;;;;;;;3.50;2.50;;;8.90;37.40;;;;;;5122463;27;20058;-60
2023/03/29 03:53:55;;;;;;;6.22;2.67;;;8.90;40.20;;;;;;5121829;27;20346;-60
2023/03/29 03:56:53;;;;;;;5.65;2.47;;;8.90;41.20;;;;;;5139341;27;20061;-60
2023/03/29 03:59:26;;;;;;;6.60;2.50;;;8.90;43.00;;;;;;5138728;27;20065;-60
2023/03/29 04:01:59;;;;;;;4.32;2.50;;;8.90;43.10;;;;;;5138564;27;20135;-60
2023/03/29 04:04:25;;;;;;;5.55;2.40;;;8.90;43.10;;;;;;5138966;27;20257;-59
2023/03/29 04:07:02;;;;;;;4.53;2.40;;;8.90;43.20;;;;;;5138489;27;20354;-59
2023/03/29 04:09:46;;;;;;;5.82;2.47;;;8.90;42.50;;;;;;5139847;27;20046;-60
2023/03/29 04:12:28;;;;;;;3.92;2.65;;;8.90;45.20;;;;;;5123592;27;20039;-60
2023/03/29 04:14:54;;;;;;;6.75;2.40;;;8.90;43.70;;;;;;5138411;27;20505;-60
2023/03/29 04:17:21;;;;;;;4.47;2.40;;;8.90;46.40;;;;;;5120867;27;20031;-60
2023/03/29 04:19:56;;;;;;;5.22;2.50;;;9.00;44.20;;;;;;5138199;27;20064;-60
2023/03/29 04:22:24;;;;;;;4.72;2.78;;;8.90;46.80;;;;;;5138050;27;20053;-60
2023/03/29 04:24:50;;;;;;;5.82;2.78;;;8.90;46.50;;;;;;5138103;27;20035;-62
2023/03/29 04:27:35;;;;;;;6.10;2.53;;;8.90;48.10;;;;;;5138259;27;20319;-60
2023/03/29 04:30:08;;;;;;;3.70;2.78;;;8.90;50.20;;;;;;5138288;27;20032;-61
2023/03/29 04:32:52;;;;;;;7.25;2.90;;;8.90;48.90;;;;;;5138839;27;20116;-61
2023/03/29 04:35:18;;;;;;;5.60;2.72;;;8.90;51.00;;;;;;5138828;27;20031;-61
2023/03/29 04:37:44;;;;;;;3.20;2.38;;;8.90;51.20;;;;;;5137849;27;20105;-59
2023/03/29 04:40:13;;;;;;;2.92;2.63;;;8.90;52.40;;;;;;5137569;27;20364;-59
2023/03/29 04:42:52;;;;;;;5.47;2.80;;;8.90;50.20;;;;;;5137813;27;20087;-59
2023/03/29 04:45:19;;;;;;;5.03;2.92;;;9.00;49.40;;;;;;5120780;27;20110;-59
2023/03/29 04:48:07;;;;;;;5.22;3.03;;;9.00;51.40;;;;;;5138347;27;20023;-59
2023/03/29 04:50:35;;;;;;;4.13;2.53;;;9.00;50.70;;;;;;5137892;27;20118;-59
2023/03/29 04:53:02;;;;;;;4.43;3.13;;;9.10;50.10;;;;;;5120536;27;20031;-60
2023/03/29 04:55:28;;;;;;;5.35;2.75;;;9.10;49.80;;;;;;5138186;27;20276;-61
2023/03/29 04:58:02;;;;;;;5.05;3.00;;;9.10;51.50;;;;;;5138421;27;20064;-61
2023/03/29 05:00:38;;;;;;;3.85;2.92;;;9.00;56.00;;;;;;5137245;27;20122;-61
2023/03/29 05:03:37;;;;;;;4.60;2.88;;;9.00;55.90;;;;;;5126106;27;20024;-61
2023/03/29 05:06:18;;;;;;;5.13;2.80;;;9.00;58.30;;;;;;5122671;27;20414;-61
2023/03/29 05:08:44;;;;;;;3.40;3.10;;;9.00;59.70;;;;;;5137382;27;20023;-61
2023/03/29 05:11:37;;;;;;;4.13;3.00;;;9.00;61.00;;;;;;5134835;27;20039;-62
2023/03/29 05:14:06;;;;;;;5.22;3.30;;;9.00;62.20;;;;;;5137255;27;20042;-60
2023/03/29 05:16:33;;;;;;;4.38;3.38;;;9.00;65.00;;;;;;5137203;27;20364;-60
2023/03/29 05:18:59;;;;;;;5.45;3.00;;;9.00;64.70;;;;;;5120203;27;20058;-60
2023/03/29 05:21:27;;;;;;;4.60;3.03;;;9.00;65.20;;;;;;5120056;28;20059;-60
2023/03/29 05:23:54;;;;;;;5.75;3.40;;;9.00;66.10;;;;;;5137190;27;20295;-61
2023/03/29 05:26:50;;;;;;;5.28;3.33;;;9.10;67.40;;;;;;5137324;27;20020;-60
2023/03/29 05:29:16;;;;;;;5.00;3.13;;;9.10;69.00;;;;;;5120595;27;20047;-60
2023/03/29 05:31:46;;;;;;;10.57;3.30;;;9.10;66.10;;;;;;5136999;27;20320;-61
2023/03/29 05:34:12;;;;;;;6.47;3.80;;;9.10;67.40;;;;;;5137792;27;20117;-61
2023/03/29 05:36:45;;;;;;;5.03;3.50;;;9.10;71.10;;;;;;5120806;28;20311;-60
2023/03/29 05:39:11;;;;;;;6.40;3.30;;;9.10;70.40;;;;;;5119897;28;20046;-61
2023/03/29 05:41:37;;;;;;;4.40;3.53;;;9.10;72.00;;;;;;5136675;28;20048;-61
2023/03/29 05:44:21;;;;;;;5.55;3.50;;;9.10;73.60;;;;;;5137640;28;20038;-62
2023/03/29 05:46:53;;;;;;;7.15;3.40;;;9.20;71.50;;;;;;5137908;28;20038;-62
2023/03/29 05:49:19;;;;;;;8.65;3.42;;;9.20;73.50;;;;;;5119664;28;20031;-62
2023/03/29 05:52:12;;;;;;;3.75;3.00;;;9.20;74.20;;;;;;5134307;27;20047;-60
2023/03/29 05:54:38;;;;;;;4.22;2.92;;;9.30;74.60;;;;;;5136902;28;20114;-60
2023/03/29 05:57:05;;;;;;;7.22;3.33;;;9.30;75.10;;;;;;5137548;27;20034;-60
2023/03/29 05:59:32;;;;;;;6.05;3.53;;;9.40;73.50;;;;;;5136665;28;20035;-61
2023/03/29 06:02:03;;;;;;;4.82;3.30;;;9.30;73.70;;;;;;5119862;28;20322;-61
2023/03/29 06:04:32;;;;;;;5.05;2.08;;;9.40;76.20;;;;;;5136782;28;20035;-62
2023/03/29 06:07:17;;;;;;;6.18;3.03;;;9.30;75.90;;;;;;5137805;28;20041;-61
2023/03/29 06:09:53;;;;;;;5.28;2.90;;;9.30;77.90;;;;;;5136807;28;20411;-61
2023/03/29 06:12:20;;;;;;;4.25;2.90;;;9.40;77.40;;;;;;5119734;28;20047;-61
2023/03/29 06:15:03;;;;;;;4.65;3.13;;;9.50;74.40;;;;;;5136620;28;20038;-60
2023/03/29 06:17:49;;;;;;;3.60;2.80;;;9.40;75.00;;;;;;5136137;27;20362;-60
2023/03/29 06:20:15;;;;;;;7.32;3.58;;;9.50;77.80;;;;;;5136889;28;20054;-60
2023/03/29 06:22:46;;;;;;;6.78;2.95;;;9.50;77.90;;;;;;5120121;28;20443;-61
2023/03/29 06:25:14;;;;;;;5.75;3.50;;;9.50;77.60;;;;;;5119528;28;20030;-61
2023/03/29 06:27:45;;;;;;;6.22;3.08;;;9.60;75.30;;;;;;5136611;28;20059;-60
2023/03/29 06:30:14;;;;;;;8.00;3.22;;;9.50;77.40;;;;;;5137335;27;20031;-60
2023/03/29 06:32:45;;;;;;;7.65;3.60;;;9.50;78.70;;;;;;5136521;28;20027;-61
2023/03/29 06:35:22;;;;;;;6.60;3.13;;;9.60;80.10;;;;;;5105956;28;20035;-60
2023/03/29 06:37:55;;;;;;;7.20;3.35;;;9.60;78.80;;;;;;5120304;28;20038;-60
2023/03/29 06:40:32;;;;;;;4.32;3.10;;;9.70;78.50;;;;;;5136756;27;20126;-60
2023/03/29 06:42:58;;;;;;;5.55;3.40;;;9.70;77.10;;;;;;5140143;27;20041;-60
2023/03/29 06:45:46;;;;;;;7.75;3.58;;;9.70;78.90;;;;;;5126182;27;20041;-59
2023/03/29 06:48:30;;;;;;;5.65;3.40;;;9.70;82.20;;;;;;5111192;27;20034;-60
2023/03/29 06:50:56;;;;;;;5.60;3.30;;;9.70;83.10;;;;;;5139902;27;20065;-60
2023/03/29 06:53:26;;;;;;;5.40;3.25;;;9.80;83.60;;;;;;5140258;27;20039;-61
2023/03/29 06:55:58;;;;;;;7.65;3.47;;;9.80;85.40;;;;;;5139951;27;20122;-60
2023/03/29 06:58:53;;;;;;;6.78;3.22;;;9.80;86.00;;;;;;5128247;27;20078;-60
2023/03/29 07:01:38;;;;;;;6.95;3.40;;;9.80;87.00;;;;;;5139911;27;20031;-60
2023/03/29 07:04:16;;;;;;;5.35;3.35;;;9.90;84.60;;;;;;5139968;27;20027;-60
2023/03/29 07:07:03;;;;;;;6.63;3.22;;;10.00;84.30;;;;;;5139335;27;20035;-59
2023/03/29 07:09:32;;;;;;;5.15;3.58;;;10.00;81.40;;;;;;5139656;27;20471;-60
2023/03/29 07:12:16;;;;;;;4.55;3.25;;;9.90;88.90;;;;;;5140402;27;20440;-61
2023/03/29 07:14:42;;;;;;;6.85;3.67;;;10.00;90.90;;;;;;5122836;27;20031;-60
2023/03/29 07:17:08;;;;;;;7.20;3.40;;;10.00;91.00;;;;;;5140377;27;20027;-60
2023/03/29 07:19:39;;;;;;;6.82;3.47;;;9.90;92.40;;;;;;5139468;27;20281;-60
2023/03/29 07:22:34;;;;;;;5.43;3.83;;;9.90;93.60;;;;;;5122283;27;20039;-61
2023/03/29 07:25:00;;;;;;;7.18;4.55;;;9.80;98.10;;;;;;5122306;27;20035;-60
2023/03/29 07:27:27;;;;;;;7.88;3.85;;;9.80;99.90;;;;;;5122245;27;20277;-60
2023/03/29 07:29:52;;;;;;;7.43;3.95;;;9.70;99.90;;;;;;5140305;27;20027;-60
2023/03/29 07:32:18;;;;;;;13.05;4.50;;;9.80;99.90;;;;;;5139690;27;20023;-60
2023/03/29 07:34:46;;;;;;;10.32;4.38;;;9.70;99.90;;;;;;5139863;27;20127;-62
2023/03/29 07:37:23;;;;;;;7.75;4.28;;;9.80;99.90;;;;;;5139560;27;20031;-60
2023/03/29 07:39:50;;;;;;;7.18;4.63;;;9.70;99.90;;;;;;5122227;27;20134;-60
2023/03/29 07:42:26;;;;;;;7.55;4.05;;;9.60;99.90;;;;;;5140313;27;20039;-60
2023/03/29 07:44:54;;;;;;;8.02;4.65;;;9.70;99.90;;;;;;5122561;27;20043;-60
2023/03/29 07:47:20;;;;;;;6.22;4.95;;;9.70;99.90;;;;;;5138965;27;20307;-60
2023/03/29 07:49:46;;;;;;;7.80;4.80;;;9.70;99.90;;;;;;5139007;27;20057;-60
2023/03/29 07:52:12;;;;;;;9.35;4.75;;;9.70;99.90;;;;;;5138743;27;20058;-60
2023/03/29 07:54:39;;;;;;;6.70;4.70;;;9.70;99.90;;;;;;5138847;27;20036;-61
2023/03/29 07:57:28;;;;;;;10.57;4.88;;;9.70;99.90;;;;;;5128558;27;20035;-61
2023/03/29 07:59:56;;;;;;;6.75;4.18;;;9.70;99.90;;;;;;5138718;27;20054;-64
2023/03/29 08:02:26;;;;;;;7.80;5.00;;;9.60;99.90;;;;;;5139333;27;20031;-61
2023/03/29 08:04:55;;;;;;;9.02;5.38;;;9.50;99.90;;;;;;5138655;27;20027;-61
2023/03/29 08:07:53;;;;;;;7.82;5.07;;;9.40;99.90;;;;;;5126020;27;20035;-61
2023/03/29 08:10:41;;;;;;;9.52;5.88;;;9.40;99.90;;;;;;5124305;27;20039;-61
2023/03/29 08:13:27;;;;;;;9.80;5.32;;;9.40;99.90;;;;;;5138664;27;20334;-61
2023/03/29 08:16:13;;;;;;;5.90;5.25;;;9.50;99.90;;;;;;5097331;27;20411;-61
2023/03/29 08:18:46;;;;;;;9.93;5.68;;;9.60;99.90;;;;;;5122341;27;20127;-60
2023/03/29 08:21:13;;;;;;;6.78;5.38;;;9.60;99.90;;;;;;5138242;27;20126;-61
2023/03/29 08:23:42;;;;;;;7.88;5.38;;;9.50;99.90;;;;;;5138271;27;20023;-61
2023/03/29 08:26:14;;;;;;;8.48;5.03;;;9.50;99.90;;;;;;5138229;27;20269;-60
2023/03/29 08:28:41;;;;;;;10.18;5.40;;;9.60;99.90;;;;;;5138105;27;20130;-61
2023/03/29 08:31:11;;;;;;;7.50;5.45;;;9.70;99.90;;;;;;5139151;27;20098;-60
2023/03/29 08:33:42;;;;;;;;;;;9.70;99.90;;;;;;5138581;27;20027;-60
2023/03/29 08:36:43;;;;;;;7.85;5.35;;;9.60;99.90;;;;;;5064969;28;19912;-61
2023/03/29 08:39:18;;;;;;;10.20;5.53;;;9.60;99.90;;;;;;5113332;27;20046;-61
2023/03/29 08:42:02;;;;;;;9.00;5.38;;;9.80;99.90;;;;;;5137820;27;20051;-60
2023/03/29 08:44:52;;;;;;;7.80;5.07;;;9.90;99.90;;;;;;5138226;27;20403;-60
2023/03/29 08:47:49;;;;;;;6.20;4.82;;;10.10;99.90;;;;;;5137784;27;20020;-60
2023/03/29 08:50:17;;;;;;;8.00;4.93;;;10.20;99.90;;;;;;5137591;27;20056;-60
2023/03/29 08:52:55;;;;;;;5.82;4.53;;;10.30;99.90;;;;;;5137927;27;20407;-60
2023/03/29 08:55:58;;;;;;;10.18;4.88;;;10.60;99.90;;;;;;5129264;27;20462;-60
2023/03/29 08:58:48;;;;;;;6.60;4.35;;;11.00;99.90;;;;;;5137614;27;20027;-59
2023/03/29 09:01:14;;;;;;;8.35;4.63;;;11.10;99.90;;;;;;5137460;27;20145;-60
2023/03/29 09:04:15;;;;;;;7.88;4.80;;;11.10;99.90;;;;;;5137976;27;20162;-60
2023/03/29 09:06:51;;;;;;;9.88;5.13;;;11.20;99.90;;;;;;5137402;27;20395;-59
2023/03/29 09:09:25;;;;;;;7.63;4.80;;;11.30;99.90;;;;;;5137362;27;20326;-59
2023/03/29 09:12:20;;;;;;;6.75;4.55;;;11.20;99.90;;;;;;5137561;27;20027;-59
2023/03/29 09:15:18;;;;;;;6.38;4.32;;;11.40;99.40;;;;;;5137368;27;20415;-59
2023/03/29 09:18:02;;;;;;;9.63;4.40;;;11.50;97.80;;;;;;5121644;27;20027;-59
2023/03/29 09:21:04;;;;;;;8.23;4.70;;;11.60;97.40;;;;;;5137222;27;20107;-59
2023/03/29 09:23:52;;;;;;;9.70;4.30;;;11.60;96.00;;;;;;5058707;28;20046;-59
2023/03/29 09:27:04;;;;;;;5.57;3.50;;;11.60;95.40;;;;;;5137237;27;20019;-59
2023/03/29 09:29:36;;;;;;;6.18;3.72;;;11.70;95.30;;;;;;5137151;28;20066;-59
2023/03/29 09:32:07;;;;;;;7.97;4.40;;;11.70;94.80;;;;;;5137008;27;20042;-59
2023/03/29 09:34:55;;;;;;;8.30;4.95;;;11.80;93.60;;;;;;5138230;27;20023;-59
2023/03/29 09:37:29;;;;;;;4.82;4.25;;;11.90;93.60;;;;;;5137822;27;20356;-59
2023/03/29 09:39:56;;;;;;;7.15;4.30;;;11.90;93.70;;;;;;5136877;28;20023;-59
2023/03/29 09:42:31;;;;;;;7.18;4.30;;;11.70;94.60;;;;;;5136986;28;20043;-59
2023/03/29 09:45:07;;;;;;;5.03;4.05;;;11.90;96.30;;;;;;5136856;28;20031;-59
2023/03/29 09:47:56;;;;;;;7.03;4.50;;;12.30;94.40;;;;;;5137086;28;20034;-60
2023/03/29 09:50:35;;;;;;;9.18;4.30;;;12.60;88.40;;;;;;5137012;28;20031;-59
2023/03/29 09:53:04;;;;;;;5.00;3.70;;;12.50;92.30;;;;;;5136896;28;20415;-59
2023/03/29 09:55:36;;;;;;;8.10;4.13;;;13.00;90.90;;;;;;5136854;28;20357;-59
2023/03/29 09:58:31;;;;;;;5.72;4.00;;;13.20;83.50;;;;;;5117682;27;20027;-59
2023/03/29 10:01:00;;;;;;;6.85;4.30;;;13.20;82.50;;;;;;5136633;28;20030;-59
2023/03/29 10:03:30;;;;;;;11.20;4.07;;;13.60;58.50;;;;;;5137542;27;20082;-59
2023/03/29 10:06:24;;;;;;;7.43;3.67;;;13.50;57.30;;;;;;5133386;27;20027;-59
2023/03/29 10:08:57;;;;;;;5.68;3.63;;;13.70;52.30;;;;;;5136703;28;20035;-61
2023/03/29 10:11:29;;;;;;;5.65;3.78;;;13.40;54.60;;;;;;5136726;28;20027;-58
2023/03/29 10:14:00;;;;;;;6.50;4.05;;;13.40;70.80;;;;;;5137284;28;20022;-60
2023/03/29 10:16:36;;;;;;;7.85;4.07;;;13.90;57.40;;;;;;5139330;27;20157;-58
2023/03/29 10:19:20;;;;;;;5.18;3.45;;;14.10;37.90;;;;;;5141501;27;20303;-58
2023/03/29 10:21:48;;;;;;;4.40;3.30;;;14.60;28.40;;;;;;5141156;27;20044;-58
2023/03/29 10:24:19;;;;;;;3.85;3.30;;;14.50;27.20;;;;;;5141203;27;20031;-58
2023/03/29 10:26:46;;;;;;;4.07;3.42;;;14.90;23.00;;;;;;5141167;27;20027;-58
2023/03/29 10:29:12;;;;;;;4.90;3.40;;;15.30;6.20;;;;;;5141198;27;20307;-59
2023/03/29 10:31:41;;;;;;;8.93;3.47;;;15.20;1.00;;;;;;5140314;27;20157;-59
2023/03/29 10:34:09;;;;;;;5.20;3.63;;;14.80;6.00;;;;;;5140362;27;20403;-60
2023/03/29 10:36:41;;;;;;;5.25;3.30;;;14.60;13.90;;;;;;5141117;27;20027;-57
2023/03/29 10:39:12;;;;;;;4.88;3.15;;;14.80;8.80;;;;;;5141122;27;20031;-58
2023/03/29 10:41:39;;;;;;;5.50;3.38;;;14.90;12.90;;;;;;5140885;27;20447;-59
2023/03/29 10:44:05;;;;;;;5.43;3.72;;;15.00;4.50;;;;;;5123387;27;20062;-60
2023/03/29 10:46:39;;;;;;;4.25;3.40;;;14.70;7.60;;;;;;5141018;27;20034;-60
2023/03/29 10:49:18;;;;;;;9.48;3.55;;;14.30;23.10;;;;;;5140331;27;20027;-59
2023/03/29 10:51:48;;;;;;;6.85;3.75;;;14.20;39.00;;;;;;5141124;27;20283;-59
2023/03/29 10:54:19;;;;;;;3.67;3.00;;;14.50;29.60;;;;;;5140799;27;20110;-59
2023/03/29 10:56:57;;;;;;;5.53;3.63;;;14.10;30.80;;;;;;5140901;27;20035;-58
2023/03/29 10:59:35;;;;;;;6.40;3.67;;;14.10;31.20;;;;;;5140712;27;20031;-60
2023/03/29 11:02:13;;;;;;;7.45;3.67;;;14.20;31.60;;;;;;5141132;27;20080;-59
2023/03/29 11:05:04;;;;;;;6.78;3.65;;;14.20;36.40;;;;;;5140556;27;20380;-59
2023/03/29 11:07:33;;;;;;;5.57;3.80;;;14.50;29.20;;;;;;5141057;27;20027;-59
2023/03/29 11:10:23;;;;;;;9.30;3.88;;;14.80;22.40;;;;;;5140432;27;20288;-59
2023/03/29 11:12:49;;;;;;;5.10;3.30;;;15.00;14.10;;;;;;5139623;27;20031;-58
2023/03/29 11:15:41;;;;;;;4.95;3.72;;;15.30;9.10;;;;;;5140428;27;20037;-58
2023/03/29 11:18:26;;;;;;;5.70;3.65;;;14.90;14.90;;;;;;5140310;27;20396;-58
2023/03/29 11:21:04;;;;;;;5.13;3.80;;;14.60;28.20;;;;;;5140192;27;20070;-58
2023/03/29 11:24:08;;;;;;;6.50;3.40;;;14.70;28.70;;;;;;5140237;27;20047;-58
2023/03/29 11:26:49;;;;;;;5.90;3.85;;;14.60;34.70;;;;;;5139824;27;20349;-59
2023/03/29 11:29:21;;;;;;;4.97;3.58;;;14.80;24.50;;;;;;5139402;27;20080;-58
2023/03/29 11:32:06;;;;;;;5.53;3.58;;;14.80;26.70;;;;;;5140147;27;20403;-58
2023/03/29 11:35:01;;;;;;;4.57;3.50;;;14.80;22.90;;;;;;5139398;27;20350;-57
2023/03/29 11:37:53;;;;;;;5.40;3.35;;;14.70;32.70;;;;;;5140034;27;20031;-59
2023/03/29 11:40:44;;;;;;;4.85;3.28;;;14.50;41.70;;;;;;5125045;27;20065;-60
2023/03/29 11:43:19;;;;;;;5.45;3.33;;;14.80;29.40;;;;;;5139053;27;20035;-59
2023/03/29 11:46:09;;;;;;;4.75;3.40;;;14.90;36.10;;;;;;5139811;27;20309;-59
2023/03/29 11:48:51;;;;;;;6.18;3.50;;;15.10;30.70;;;;;;5122038;27;20098;-61
2023/03/29 11:51:25;;;;;;;6.33;3.50;;;14.70;33.00;;;;;;5139519;27;20027;-59
2023/03/29 11:54:06;;;;;;;5.03;3.20;;;14.60;46.50;;;;;;5139524;27;20110;-58
2023/03/29 11:56:35;;;;;;;5.03;3.55;;;15.00;34.20;;;;;;5139632;27;20026;-60
2023/03/29 11:59:21;;;;;;;6.15;3.63;;;15.00;33.10;;;;;;5139458;27;20128;-60
2023/03/29 12:02:00;;;;;;;5.30;3.05;;;14.90;38.80;;;;;;5139486;27;20031;-62
2023/03/29 12:04:31;;;;;;;3.33;2.50;;;14.90;41.20;;;;;;5138763;27;20038;-60
2023/03/29 12:07:16;;;;;;;4.15;2.55;;;15.10;36.80;;;;;;5139447;27;20328;-60
2023/03/29 12:10:07;;;;;;;5.78;2.75;;;15.20;30.00;;;;;;5139402;27;20020;-59
2023/03/29 12:12:40;;;;;;;3.97;2.97;;;15.60;23.00;;;;;;5138406;27;20023;-58
2023/03/29 12:15:20;;;;;;;4.32;2.80;;;15.60;25.40;;;;;;5139074;27;20030;-59
2023/03/29 12:18:05;;;;;;;3.20;2.55;;;15.60;26.30;;;;;;5139038;27;20038;-60
2023/03/29 12:20:37;;;;;;;2.70;2.40;;;15.20;37.70;;;;;;5138924;27;20038;-58
2023/03/29 12:23:06;;;;;;;2.97;2.00;;;15.50;27.70;;;;;;5139061;27;20095;-60
2023/03/29 12:25:47;;;;;;;4.40;2.17;;;15.70;22.60;;;;;;5139104;27;20023;-59
2023/03/29 12:28:32;;;;;;;4.10;2.00;;;15.60;20.60;;;;;;5138054;27;20388;-58
2023/03/29 12:31:35;;;;;;;1.90;1.70;;;15.50;23.30;;;;;;5137963;27;20384;-59
2023/03/29 12:34:20;;;;;;;2.70;1.90;;;15.60;28.50;;;;;;5138863;27;20076;-60
2023/03/29 12:37:19;;;;;;;2.30;1.73;;;15.40;25.90;;;;;;5138738;27;20479;-60
2023/03/29 12:39:47;;;;;;;3.53;1.90;;;15.10;33.10;;;;;;5138346;27;20043;-60
2023/03/29 12:42:53;;;;;;;3.00;1.92;;;14.90;42.30;;;;;;5093451;27;20043;-59
2023/03/29 12:45:55;;;;;;;4.70;2.10;;;15.00;46.60;;;;;;5137670;27;20296;-59
2023/03/29 12:48:27;;;;;;;3.85;1.90;;;15.30;37.30;;;;;;5138382;27;20050;-59
2023/03/29 12:51:03;;;;;;;4.35;1.77;;;15.50;31.10;;;;;;5138680;27;20027;-62
2023/03/29 12:53:38;;;;;;;5.60;2.25;;;15.80;18.60;;;;;;5117753;28;20035;-59
2023/03/29 12:56:07;;;;;;;2.50;1.88;;;15.80;20.90;;;;;;5118254;28;20164;-58
2023/03/29 12:58:42;;;;;;;2.47;2.00;;;15.90;19.70;;;;;;5117928;28;20434;-58
2023/03/29 13:01:29;;;;;;;3.30;1.70;;;16.00;15.40;;;;;;5116873;28;20300;-59
2023/03/29 13:03:58;;;;;;;3.15;1.80;;;16.00;11.00;;;;;;5117753;28;20269;-59
2023/03/29 13:06:50;;;;;;;2.85;1.50;;;16.10;11.00;;;;;;5117498;28;20032;-60
2023/03/29 13:09:28;;;;;;;4.47;1.48;;;16.10;7.20;;;;;;5117142;28;20338;-62
2023/03/29 13:11:56;;;;;;;2.38;1.30;;;16.40;1.00;;;;;;5100296;28;20114;-58
2023/03/29 13:14:28;;;;;;;2.65;1.60;;;16.50;1.00;;;;;;5117458;28;20333;-58
2023/03/29 13:17:05;;;;;;;4.13;2.00;;;16.70;1.00;;;;;;5117537;28;20303;-60
2023/03/29 13:19:53;;;;;;;4.05;1.90;;;16.50;1.00;;;;;;5116797;28;20043;-59
2023/03/29 13:22:40;;;;;;;2.53;1.67;;;16.40;5.00;;;;;;5117307;28;20460;-59
2023/03/29 13:25:23;;;;;;;4.43;2.10;;;16.60;1.00;;;;;;5117433;28;20111;-57
2023/03/29 13:28:09;;;;;;;3.67;1.90;;;16.60;1.00;;;;;;5117413;28;20105;-57
2023/03/29 13:30:50;;;;;;;3.70;1.30;;;16.90;1.00;;;;;;5116589;28;20389;-57
2023/03/29 13:33:18;;;;;;;3.08;1.40;;;16.80;1.00;;;;;;5117170;28;20084;-59
2023/03/29 13:36:15;;;;;;;2.08;1.30;;;16.60;1.00;;;;;;5117879;28;20362;-59
2023/03/29 13:38:51;;;;;;;1.83;1.38;;;16.40;9.30;;;;;;5117281;28;20124;-59